• Join FlightAware (Why Join?)
  • Login
  • US Flag 
02:34PM EDT


 

Airport Tracker/Info


-or-


 

Live Flight TrackerFlight Track Log ✈ N92PS ✈ 13-Jul-2013 ✈ KPHL - 76N

Flight Track Log - Related Links

Times and Time Zones

All times are in EDT time to prevent confusion due to time zone crossing. See the N92PS flight status page for this flight to view local times or setup timezone preferences in your user account.

Time Position Orientation Groundspeed Altitude Reporting Facility
EDT Latitude Longitude Course Direction KTS MPH feet Rate Location/Type
05:39PM 39.8998 -75.2437 332° Northwest 116 133 300  Level FlightAware ADS-B
05:39PM 39.9024 -75.2454 333° Northwest 119 137 400 840 Climbing FlightAware ADS-B
05:39PM 39.9070 -75.2480 337° Northwest 121 139 500 420 Climbing FlightAware ADS-B
05:39PM 39.9153 -75.2527 337° Northwest 124 143 600 660 Climbing FlightAware ADS-B
05:39PM 39.9207 -75.2557 337° Northwest 125 144 800 900 Climbing FlightAware ADS-B
05:40PM 39.9293 -75.2610 335° Northwest 129 148 1,000 720 Climbing FlightAware ADS-B
05:40PM 39.9335 -75.2635 335° Northwest 131 151 1,100 540 Climbing FlightAware ADS-B
05:40PM 39.9410 -75.2683 334° Northwest 133 153 1,200 660 Climbing FlightAware ADS-B
05:40PM 39.9440 -75.2701 335° Northwest 135 155 1,300 420 Climbing FlightAware ADS-B
05:40PM 39.9485 -75.2731 333° Northwest 135 155 1,300 420 Level FlightAware ADS-B
05:40PM 39.9510 -75.2747 334° Northwest 135 155 1,400 1,200 Climbing FlightAware ADS-B
05:40PM 39.9537 -75.2762 337° Northwest 136 157 1,500 600 Climbing FlightAware ADS-B
05:40PM 39.9570 -75.2778 340° North 136 157 1,500 660 Level FlightAware ADS-B
05:41PM 39.9641 -75.2808 342° North 138 159 1,700 900 Climbing FlightAware ADS-B
05:41PM 39.9691 -75.2827 344° North 138 159 1,800 960 Climbing FlightAware ADS-B
05:41PM 39.9717 -75.2835 347° North 139 160 1,900 600 Climbing FlightAware ADS-B
05:41PM 39.9821 -75.2864 348° North 142 163 2,000 540 Climbing FlightAware ADS-B
05:41PM 39.9912 -75.2890 348° North 142 163 2,200 960 Climbing FlightAware ADS-B
05:41PM 39.9978 -75.2905 350° North 141 162 2,400 960 Climbing FlightAware ADS-B
05:42PM 40.0074 -75.2925 351° North 141 162 2,600 600 Climbing FlightAware ADS-B
05:42PM 40.0101 -75.2930 352° North 141 162 2,600 600 Level FlightAware ADS-B
05:42PM 40.0197 -75.2945 353° North 146 168 2,800 420 Climbing FlightAware ADS-B
05:42PM 40.0278 -75.2957 354° North 149 171 2,800  Level FlightAware ADS-B
05:42PM 40.0354 -75.2969 353° North 152 175 2,800  Level FlightAware ADS-B
05:43PM 40.0401 -75.2977 353° North 156 180 2,800  Level FlightAware ADS-B
05:43PM 40.0464 -75.2987 353° North 158 182 2,800 240 Level FlightAware ADS-B
05:43PM 40.0558 -75.3004 352° North 156 180 2,900 180 Climbing FlightAware ADS-B
05:43PM 40.0671 -75.3023 353° North 167 192 2,900 -240 Level FlightAware ADS-B
05:43PM 40.0807 -75.3049 352° North 175 201 2,800 -240 Descending FlightAware ADS-B
05:44PM 40.0930 -75.3073 352° North 175 201 2,800 240 Level FlightAware ADS-B
05:44PM 40.0990 -75.3084 352° North 169 194 2,900 780 Climbing FlightAware ADS-B
05:44PM 40.1102 -75.3105 352° North 158 182 3,100 720 Climbing FlightAware ADS-B
05:44PM 40.1212 -75.3127 351° North 155 178 3,300 720 Climbing FlightAware ADS-B
05:44PM 40.1277 -75.3140 351° North 151 174 3,400 780 Climbing FlightAware ADS-B
05:45PM 40.1372 -75.3161 350° North 149 171 3,600 540 Climbing FlightAware ADS-B
05:45PM 40.1422 -75.3174 349° North 150 173 3,600 360 Level FlightAware ADS-B
05:45PM 40.1483 -75.3190 349° North 150 173 3,700 600 Climbing FlightAware ADS-B
05:45PM 40.1548 -75.3207 349° North 152 175 3,800 180 Climbing FlightAware ADS-B
05:45PM 40.1683 -75.3247 347° North 162 186 3,800  Level FlightAware ADS-B
05:46PM 40.1735 -75.3262 348° North 164 189 3,800  Level FlightAware ADS-B
05:46PM 40.1850 -75.3292 349° North 166 191 3,800  Level FlightAware ADS-B
05:46PM 40.1938 -75.3315 349° North 167 192 3,800 240 Level FlightAware ADS-B
05:46PM 40.2019 -75.3337 348° North 167 192 3,900 180 Climbing FlightAware ADS-B
05:46PM 40.2146 -75.3376 347° North 171 197 3,900  Level FlightAware ADS-B
05:47PM 40.2215 -75.3398 346° North 170 196 3,900  Level FlightAware ADS-B
05:47PM 40.2290 -75.3422 346° North 169 194 3,900 -240 Level FlightAware ADS-B
05:47PM 40.2421 -75.3456 349° North 180 207 3,800 -240 Descending FlightAware ADS-B
05:47PM 40.2549 -75.3487 350° North 181 208 3,800 120 Level FlightAware ADS-B
05:48PM 40.2709 -75.3521 351° North 177 204 3,900 180 Climbing FlightAware ADS-B
05:48PM 40.2775 -75.3532 353° North 180 207 3,900 -300 Level FlightAware ADS-B
05:48PM 40.2903 -75.3552 353° North 182 209 3,800 -240 Descending FlightAware ADS-B
05:48PM 40.3039 -75.3576 352° North 183 211 3,800  Level FlightAware ADS-B
05:49PM 40.3170 -75.3604 351° North 182 209 3,800  Level FlightAware ADS-B
05:49PM 40.3371 -75.3645 351° North 182 209 3,800  Level FlightAware ADS-B
05:49PM 40.3535 -75.3671 353° North 183 211 3,800  Level FlightAware ADS-B
05:50PM 40.3662 -75.3690 353° North 182 209 3,800 -240 Level FlightAware ADS-B
05:50PM 40.3789 -75.3709 353° North 182 209 3,700  Descending FlightAware ADS-B
05:50PM 40.3931 -75.3730 354° North 181 208 3,800 180 Climbing FlightAware ADS-B
05:50PM 40.4062 -75.3749 354° North 182 209 3,800  Level FlightAware ADS-B
05:50PM 40.4126 -75.3762 351° North 181 208 3,800  Level FlightAware ADS-B
05:51PM 40.4267 -75.3796 350° North 181 208 3,800  Level FlightAware ADS-B
05:51PM 40.4413 -75.3831 350° North 181 208 3,800  Level FlightAware ADS-B
05:51PM 40.4551 -75.3867 349° North 180 207 3,800  Level FlightAware ADS-B
05:52PM 40.4723 -75.3912 349° North 180 207 3,800  Level FlightAware ADS-B
05:52PM 40.4855 -75.3949 348° North 182 209 3,800 180 Level FlightAware ADS-B
05:52PM 40.4980 -75.3986 347° North 182 209 3,900  Climbing FlightAware ADS-B
05:53PM 40.5156 -75.4041 347° North 184 212 3,800 -180 Descending FlightAware ADS-B
05:53PM 40.5300 -75.4075 350° North 186 214 3,800  Level FlightAware ADS-B
05:54PM 40.5623 -75.4161 349° North 184 212 3,800 300 Level FlightAware ADS-B
05:55PM 40.6175 -75.4296 349° North 157 181 4,400 540 Climbing FlightAware ADS-B
05:55PM 40.6300 -75.4324 350° North 156 180 4,600 480 Climbing FlightAware ADS-B
05:55PM 40.6418 -75.4352 350° North 158 182 4,700 120 Climbing FlightAware ADS-B
05:56PM 40.6626 -75.4407 349° North 158 182 4,700  Level FlightAware ADS-B
05:58PM 40.7473 -75.4500 North  Level FlightAware Approximate
05:59PM 40.7950 -75.4500 North  Level FlightAware Approximate
06:00PM 40.8428 -75.4500 North  Level FlightAware Approximate
06:01PM 40.8905 -75.4500 North  Level FlightAware Approximate
06:02PM 40.9382 -75.4500 North  Level FlightAware Approximate
06:03PM 40.9859 -75.4500 North  Level FlightAware Approximate
06:04PM 41.0336 -75.4500 357° North  Level FlightAware Approximate
06:05PM 41.0812 -75.4537 357° North  Level FlightAware Approximate
06:06PM 41.1289 -75.4573 357° North  Level FlightAware Approximate
06:07PM 41.1765 -75.4610 357° North  Level FlightAware Approximate
06:08PM 41.2242 -75.4647 357° North  Level FlightAware Approximate
06:09PM 41.2636 -75.4893 309° West  Level FlightAware Approximate
06:10PM 41.2934 -75.5390 309° West  Level FlightAware Approximate
06:11PM 41.3246 -75.5870 312° West  Level FlightAware Approximate
06:12PM 41.3456 -75.6412 304° West  Level FlightAware Approximate
06:13PM 41.3728 -75.6933 309° West  Level FlightAware Approximate
06:14PM 41.4031 -75.7424 309° West  Level FlightAware Approximate
06:15PM 41.4334 -75.7916 309° West  Level FlightAware Approximate
06:16PM 41.4637 -75.8408 309° West  Level FlightAware Approximate
06:17PM 41.4939 -75.8901 309° West  Level FlightAware Approximate
06:18PM 41.5167 -75.9333 304° West  Level FlightAware Approximate
06:19PM 41.5292 -75.9469 304° West  Level Estimated
06:20PM 41.5292 -75.9469 304° West  Level Estimated
06:21PM 41.5292 -75.9469 304° West  Level Estimated
06:22PM 41.5292 -75.9469 304° West  Level Estimated